Kobe, Japan
Current Conditions -  °F | °C
As of 9:00 PM on Friday 31 Oct 2014 (Local Time) from RJBE Reporting Station
Light Rain Light Rain  
Wind Chill: 66°   Ceiling: 8000
Heat Index: 66°   Visibility: 6mi
Dew Point: 59°   Wind: 16mph
Humidity: 78%   Direction: 80°E
Pressure: 30.09"   Gusts: NA
Location:  34.68°N, 135.17°E
Report Text: RJBE 311200Z 08014KT 9999 -RA FEW015 SCT045 BKN080 19/15 Q1019
Loading
Personal Weather Stations






























Interactive Weather Map
Tropical Storm Tracking
New forecast layout! Learn more

10-Day Weather Forecast

Advertisements
Track Severe Weather on mobile